Time;durP1;ratioP1;P1;durP2;ratioP2;P2;SDS_P1;SDS_P2;PMS_P1;PMS_P2;Temp;Humidity;BMP_temperature;BMP_pressure;BME280_temperature;BME280_humidity;BME280_pressure;Samples;Min_cycle;Max_cycle;Signal;HPM_P1;HPM_P2
2023/10/07 00:01:40;;;;;;;;;;;;;;;;;;5106399;28;19913;-56
2023/10/07 00:04:09;;;;;;;;;;;;;;;;;;5097571;28;19924;-55
2023/10/07 00:06:37;;;;;;;;;;;;;;;;;;5101059;28;19939;-58
2023/10/07 00:09:10;;;;;;;;;;;;;;;;;;5104162;28;19972;-56
2023/10/07 00:11:35;;;;;;;;;;;;;;;;;;5105536;28;19916;-58
2023/10/07 00:14:02;;;;;;;;;;;;;;;;;;5099358;28;19928;-59
2023/10/07 00:16:28;;;;;;;;;;;;;;;;;;5099610;28;19935;-59
2023/10/07 00:18:54;;;;;;;;;;;;;;;;;;5102644;28;19912;-55
2023/10/07 00:21:27;;;;;;;;;;;;;;;;;;5111376;28;19912;-58
2023/10/07 00:23:53;;;;;;;;;;;;;;;;;;5100454;28;19962;-58
2023/10/07 00:26:18;;;;;;;;;;;;;;;;;;5126055;28;19912;-57
2023/10/07 00:28:54;;;;;;;;;;;;;;;;;;5110190;28;19967;-56
2023/10/07 00:31:23;;;;;;;;;;;;;;;;;;5092180;28;19919;-56
2023/10/07 00:34:02;;;;;;;;;;;;;;;;;;5075502;28;19985;-57
2023/10/07 00:39:06;;;;;;;;;;;;;;;;;;5072677;28;19921;-56
2023/10/07 00:41:39;;;;;;;;;;;;;;;;;;5095810;28;19912;-58
2023/10/07 00:44:29;;;;;;;;;;;;;;;;;;5110307;28;19956;-57
2023/10/07 00:49:29;;;;;;;;;;;;;;;;;;5097566;28;20762;-59
2023/10/07 00:51:55;;;;;;;;;;;;;;;;;;5097724;28;19923;-55
2023/10/07 00:57:05;;;;;;;;;;;;;;;;;;5099436;28;19912;-57
2023/10/07 00:59:35;;;;;;;;;;;;;;;;;;5101072;28;19940;-58
2023/10/07 01:02:05;;;;;;;;;;;;;;;;;;5090383;28;19913;-58
2023/10/07 01:04:40;;;;;;;;;;;;;;;;;;5115464;28;19963;-58
2023/10/07 01:07:06;;;;;;;;;;;;;;;;;;5081561;28;19934;-57
2023/10/07 01:09:31;;;;;;;;;;;;;;;;;;5115529;28;19972;-55
2023/10/07 01:11:57;;;;;;;;;;;;;;;;;;5105128;28;19962;-54
2023/10/07 01:14:23;;;;;;;;;;;;;;;;;;5098447;28;19917;-56
2023/10/07 01:16:48;;;;;;;;;;;;;;;;;;5099192;28;19987;-51
2023/10/07 01:21:40;;;;;;;;;;;;;;;;;;5101349;28;19913;-55
2023/10/07 01:24:06;;;;;;;;;;;;;;;;;;5102791;28;19916;-53
2023/10/07 01:26:33;;;;;;;;;;;;;;;;;;5117274;28;19969;-56
2023/10/07 01:29:12;;;;;;;;;;;;;;;;;;5102787;28;19932;-56
2023/10/07 01:31:42;;;;;;;;;;;;;;;;;;5117266;28;19908;-55
2023/10/07 01:34:13;;;;;;;;;;;;;;;;;;5117455;28;19912;-55
2023/10/07 01:36:40;;;;;;;;;;;;;;;;;;5118262;28;19916;-56
2023/10/07 01:39:06;;;;;;;;;;;;;;;;;;5097724;28;19916;-54
2023/10/07 01:41:37;;;;;;;;;;;;;;;;;;5108467;28;19920;-57
2023/10/07 01:44:05;;;;;;;;;;;;;;;;;;5106616;28;19943;-57
2023/10/07 01:46:31;;;;;;;;;;;;;;;;;;5117473;28;19928;-56
2023/10/07 01:48:57;;;;;;;;;;;;;;;;;;5079631;28;19972;-55
2023/10/07 01:51:23;;;;;;;;;;;;;;;;;;5090070;28;19916;-58
2023/10/07 01:53:49;;;;;;;;;;;;;;;;;;5117415;28;19912;-56
2023/10/07 01:56:15;;;;;;;;;;;;;;;;;;5113735;28;19912;-58
2023/10/07 01:58:40;;;;;;;;;;;;;;;;;;5133574;28;19976;-58
2023/10/07 02:01:06;;;;;;;;;;;;;;;;;;5115402;28;19920;-56
2023/10/07 02:03:32;;;;;;;;;;;;;;;;;;5116819;28;19920;-55
2023/10/07 02:05:58;;;;;;;;;;;;;;;;;;5115490;28;19920;-59
2023/10/07 02:08:24;;;;;;;;;;;;;;;;;;5117364;28;19912;-56
2023/10/07 02:10:49;;;;;;;;;;;;;;;;;;5104326;28;19912;-58
2023/10/07 02:13:18;;;;;;;;;;;;;;;;;;5123159;28;19912;-54
2023/10/07 02:15:44;;;;;;;;;;;;;;;;;;5095888;28;19967;-58
2023/10/07 02:18:15;;;;;;;;;;;;;;;;;;5089443;28;19919;-58
2023/10/07 02:20:43;;;;;;;;;;;;;;;;;;5116341;28;19912;-58
2023/10/07 02:23:13;;;;;;;;;;;;;;;;;;5088290;28;19947;-57
2023/10/07 02:25:38;;;;;;;;;;;;;;;;;;5126411;28;19908;-55
2023/10/07 02:28:06;;;;;;;;;;;;;;;;;;5112836;28;19919;-56
2023/10/07 02:30:31;;;;;;;;;;;;;;;;;;5079135;28;19913;-58
2023/10/07 02:32:58;;;;;;;;;;;;;;;;;;5104748;28;19976;-56
2023/10/07 02:35:30;;;;;;;;;;;;;;;;;;5097183;28;19923;-59
2023/10/07 02:37:57;;;;;;;;;;;;;;;;;;5100138;28;19912;-56
2023/10/07 02:40:35;;;;;;;;;;;;;;;;;;5081508;28;19923;-59
2023/10/07 02:43:06;;;;;;;;;;;;;;;;;;5101456;28;19920;-58
2023/10/07 02:45:39;;;;;;;;;;;;;;;;;;5112555;28;19943;-57
2023/10/07 02:48:04;;;;;;;;;;;;;;;;;;5112365;28;19912;-57
2023/10/07 02:50:31;;;;;;;;;;;;;;;;;;5112376;28;19966;-60
2023/10/07 02:52:57;;;;;;;;;;;;;;;;;;5113607;28;19919;-57
2023/10/07 02:57:55;;;;;;;;;;;;;;;;;;5106800;28;19934;-58
2023/10/07 03:00:29;;;;;;;;;;;;;;;;;;5095737;28;19948;-58
2023/10/07 03:03:10;;;;;;;;;;;;;;;;;;5090109;28;19970;-58
2023/10/07 03:05:36;;;;;;;;;;;;;;;;;;5096280;28;19943;-57
2023/10/07 03:08:06;;;;;;;;;;;;;;;;;;5096560;28;19912;-55
2023/10/07 03:10:42;;;;;;;;;;;;;;;;;;5115530;28;19916;-55
2023/10/07 03:13:08;;;;;;;;;;;;;;;;;;5130992;28;19916;-58
2023/10/07 03:18:00;;;;;;;;;;;;;;;;;;5111220;28;19912;-57
2023/10/07 03:20:31;;;;;;;;;;;;;;;;;;5117617;28;19980;-53
2023/10/07 03:23:15;;;;;;;;;;;;;;;;;;5115546;28;19991;-53
2023/10/07 03:28:18;;;;;;;;;;;;;;;;;;5115672;28;19912;-57
2023/10/07 03:30:51;;;;;;;;;;;;;;;;;;5107937;28;19948;-56
2023/10/07 03:33:17;;;;;;;;;;;;;;;;;;5098598;28;19912;-56
2023/10/07 03:38:23;;;;;;;;;;;;;;;;;;5105242;28;20064;-59
2023/10/07 03:40:54;;;;;;;;;;;;;;;;;;5095684;28;19974;-57
2023/10/07 03:43:20;;;;;;;;;;;;;;;;;;5086721;28;19926;-59
2023/10/07 03:45:46;;;;;;;;;;;;;;;;;;5095704;28;19940;-57
2023/10/07 03:48:23;;;;;;;;;;;;;;;;;;5096163;28;19933;-59
2023/10/07 03:50:49;;;;;;;;;;;;;;;;;;5096068;28;19919;-59
2023/10/07 03:53:15;;;;;;;;;;;;;;;;;;5096136;28;19948;-58
2023/10/07 03:55:40;;;;;;;;;;;;;;;;;;5095249;28;19939;-59
2023/10/07 03:58:05;;;;;;;;;;;;;;;;;;5097213;28;19923;-56
2023/10/07 04:00:35;;;;;;;;;;;;;;;;;;5095243;28;19912;-54
2023/10/07 04:03:07;;;;;;;;;;;;;;;;;;5102896;28;19983;-58
2023/10/07 04:05:32;;;;;;;;;;;;;;;;;;5096807;28;19913;-55
2023/10/07 04:08:00;;;;;;;;;;;;;;;;;;5097193;28;20005;-58
2023/10/07 04:10:36;;;;;;;;;;;;;;;;;;5097220;28;19920;-57
2023/10/07 04:13:07;;;;;;;;;;;;;;;;;;5088529;28;19955;-56
2023/10/07 04:15:34;;;;;;;;;;;;;;;;;;5097326;28;19912;-57
2023/10/07 04:18:00;;;;;;;;;;;;;;;;;;5096152;28;19912;-58
2023/10/07 04:20:42;;;;;;;;;;;;;;;;;;5079582;28;19935;-57
2023/10/07 04:23:08;;;;;;;;;;;;;;;;;;5095082;28;19912;-60
2023/10/07 04:25:42;;;;;;;;;;;;;;;;;;5097277;28;19920;-55
2023/10/07 04:28:13;;;;;;;;;;;;;;;;;;5081580;28;19913;-55
2023/10/07 04:30:39;;;;;;;;;;;;;;;;;;5100274;28;19912;-55
2023/10/07 04:33:08;;;;;;;;;;;;;;;;;;5116427;28;19916;-56
2023/10/07 04:35:33;;;;;;;;;;;;;;;;;;5098886;28;19916;-52
2023/10/07 04:38:09;;;;;;;;;;;;;;;;;;5098782;28;19938;-55
2023/10/07 04:41:16;;;;;;;;;;;;;;;;;;5086050;28;19939;-58
2023/10/07 04:43:35;;;;;;;;;;;;;;;;;;5103021;28;19923;-54
2023/10/07 04:46:06;;;;;;;;;;;;;;;;;;5113899;28;19916;-58
2023/10/07 04:48:42;;;;;;;;;;;;;;;;;;5109681;28;20077;-58
2023/10/07 04:51:12;;;;;;;;;;;;;;;;;;5118789;28;19912;-59
2023/10/07 04:53:39;;;;;;;;;;;;;;;;;;5118859;28;19930;-57
2023/10/07 04:56:05;;;;;;;;;;;;;;;;;;5118465;28;19986;-60
2023/10/07 04:58:30;;;;;;;;;;;;;;;;;;5117865;28;19920;-58
2023/10/07 05:01:04;;;;;;;;;;;;;;;;;;5108958;28;19913;-58
2023/10/07 05:03:30;;;;;;;;;;;;;;;;;;5111577;28;19996;-56
2023/10/07 05:05:55;;;;;;;;;;;;;;;;;;5109356;28;19944;-59
2023/10/07 05:08:22;;;;;;;;;;;;;;;;;;5112024;28;19939;-60
2023/10/07 05:11:04;;;;;;;;;;;;;;;;;;5091507;28;19912;-59
2023/10/07 05:13:32;;;;;;;;;;;;;;;;;;5086543;28;19916;-59
2023/10/07 05:15:57;;;;;;;;;;;;;;;;;;5118088;28;19934;-60
2023/10/07 05:18:22;;;;;;;;;;;;;;;;;;5098961;28;19916;-58
2023/10/07 05:20:48;;;;;;;;;;;;;;;;;;5116028;28;19947;-59
2023/10/07 05:23:17;;;;;;;;;;;;;;;;;;5106289;28;19927;-58
2023/10/07 05:25:48;;;;;;;;;;;;;;;;;;5099135;28;19909;-59
2023/10/07 05:28:17;;;;;;;;;;;;;;;;;;5101081;28;19916;-58
2023/10/07 05:30:50;;;;;;;;;;;;;;;;;;5104072;28;19920;-59
2023/10/07 05:33:15;;;;;;;;;;;;;;;;;;5113144;28;19912;-58
2023/10/07 05:35:43;;;;;;;;;;;;;;;;;;5117181;28;19919;-58
2023/10/07 05:38:09;;;;;;;;;;;;;;;;;;5116557;28;19919;-58
2023/10/07 05:40:36;;;;;;;;;;;;;;;;;;5117503;28;19934;-59
2023/10/07 05:43:01;;;;;;;;;;;;;;;;;;5103758;28;19932;-58
2023/10/07 05:45:26;;;;;;;;;;;;;;;;;;5117627;28;19916;-59
2023/10/07 05:47:52;;;;;;;;;;;;;;;;;;5103399;28;19939;-60
2023/10/07 05:50:22;;;;;;;;;;;;;;;;;;5097571;28;19912;-56
2023/10/07 05:52:48;;;;;;;;;;;;;;;;;;5109033;28;19948;-57
2023/10/07 05:55:13;;;;;;;;;;;;;;;;;;5109782;28;19936;-60
2023/10/07 05:57:39;;;;;;;;;;;;;;;;;;5080299;28;19913;-59
2023/10/07 06:00:04;;;;;;;;;;;;;;;;;;5105454;28;19913;-60
2023/10/07 06:02:30;;;;;;;;;;;;;;;;;;5097566;28;19919;-56
2023/10/07 06:04:56;;;;;;;;;;;;;;;;;;5107310;28;19939;-56
2023/10/07 06:07:22;;;;;;;;;;;;;;;;;;5110934;28;19912;-57
2023/10/07 06:09:48;;;;;;;;;;;;;;;;;;5102454;28;19919;-55
2023/10/07 06:12:15;;;;;;;;;;;;;;;;;;5098741;28;19912;-57
2023/10/07 06:14:41;;;;;;;;;;;;;;;;;;5103544;28;19916;-57
2023/10/07 06:17:06;;;;;;;;;;;;;;;;;;5098401;28;19947;-57
2023/10/07 06:19:33;;;;;;;;;;;;;;;;;;5104895;28;19919;-59
2023/10/07 06:21:59;;;;;;;;;;;;;;;;;;5115938;28;19935;-59
2023/10/07 06:24:26;;;;;;;;;;;;;;;;;;5116521;28;19916;-58
2023/10/07 06:26:53;;;;;;;;;;;;;;;;;;5102734;28;19913;-57
2023/10/07 06:29:19;;;;;;;;;;;;;;;;;;5109173;28;19912;-59
2023/10/07 06:31:48;;;;;;;;;;;;;;;;;;5109581;28;19938;-58
2023/10/07 06:34:14;;;;;;;;;;;;;;;;;;5104849;28;19912;-56
2023/10/07 06:36:42;;;;;;;;;;;;;;;;;;5115345;28;19912;-59
2023/10/07 06:39:08;;;;;;;;;;;;;;;;;;5127661;28;19908;-57
2023/10/07 06:41:33;;;;;;;;;;;;;;;;;;5110709;28;19961;-58
2023/10/07 06:43:59;;;;;;;;;;;;;;;;;;5108268;28;19931;-57
2023/10/07 06:46:24;;;;;;;;;;;;;;;;;;5097290;28;19912;-57
2023/10/07 06:48:50;;;;;;;;;;;;;;;;;;5115880;28;19916;-58
2023/10/07 06:51:15;;;;;;;;;;;;;;;;;;5114106;28;19912;-56
2023/10/07 06:53:44;;;;;;;;;;;;;;;;;;5098740;28;19959;-57
2023/10/07 06:56:12;;;;;;;;;;;;;;;;;;5115056;28;19920;-57
2023/10/07 06:58:38;;;;;;;;;;;;;;;;;;5115687;28;19908;-57
2023/10/07 07:01:16;;;;;;;;;;;;;;;;;;5113811;28;19927;-59
2023/10/07 07:03:42;;;;;;;;;;;;;;;;;;5112878;28;19916;-59
2023/10/07 07:06:16;;;;;;;;;;;;;;;;;;5101213;28;19933;-58
2023/10/07 07:08:42;;;;;;;;;;;;;;;;;;5131943;28;19942;-60
2023/10/07 07:11:10;;;;;;;;;;;;;;;;;;5114668;28;19912;-58
2023/10/07 07:13:36;;;;;;;;;;;;;;;;;;5131472;28;19913;-58
2023/10/07 07:16:06;;;;;;;;;;;;;;;;;;5113309;28;19935;-59
2023/10/07 07:18:31;;;;;;;;;;;;;;;;;;5102743;28;19924;-58
2023/10/07 07:21:00;;;;;;;;;;;;;;;;;;5083905;28;19943;-58
2023/10/07 07:23:32;;;;;;;;;;;;;;;;;;5106092;28;19979;-59
2023/10/07 07:28:30;;;;;;;;;;;;;;;;;;5095063;28;19913;-59
2023/10/07 07:30:59;;;;;;;;;;;;;;;;;;5095790;28;19912;-58
2023/10/07 07:33:29;;;;;;;;;;;;;;;;;;5096476;28;19923;-58
2023/10/07 07:35:56;;;;;;;;;;;;;;;;;;5104139;28;19913;-58
2023/10/07 07:38:29;;;;;;;;;;;;;;;;;;5096055;28;19920;-59
2023/10/07 07:40:55;;;;;;;;;;;;;;;;;;5095179;28;20006;-58
2023/10/07 07:43:25;;;;;;;;;;;;;;;;;;5097260;28;19960;-57
2023/10/07 07:46:06;;;;;;;;;;;;;;;;;;5101903;28;19936;-58
2023/10/07 07:48:36;;;;;;;;;;;;;;;;;;5080352;28;19917;-59
2023/10/07 07:51:03;;;;;;;;;;;;;;;;;;5095146;28;19918;-60
2023/10/07 07:53:30;;;;;;;;;;;;;;;;;;5097574;28;19951;-57
2023/10/07 07:55:58;;;;;;;;;;;;;;;;;;5099478;28;19920;-57
2023/10/07 07:58:24;;;;;;;;;;;;;;;;;;5098025;28;19939;-60
2023/10/07 08:00:58;;;;;;;;;;;;;;;;;;5097278;28;19912;-57
2023/10/07 08:03:24;;;;;;;;;;;;;;;;;;5085482;28;19925;-57
2023/10/07 08:05:49;;;;;;;;;;;;;;;;;;5097973;28;19912;-59
2023/10/07 08:08:24;;;;;;;;;;;;;;;;;;5095760;28;19968;-59
2023/10/07 08:10:49;;;;;;;;;;;;;;;;;;5104818;28;19912;-59
2023/10/07 08:13:20;;;;;;;;;;;;;;;;;;5095656;28;19916;-56
2023/10/07 08:15:48;;;;;;;;;;;;;;;;;;5106611;28;19923;-59
2023/10/07 08:18:13;;;;;;;;;;;;;;;;;;5095777;28;19908;-58
2023/10/07 08:20:44;;;;;;;;;;;;;;;;;;5102854;28;19999;-59
2023/10/07 08:23:21;;;;;;;;;;;;;;;;;;5103351;28;19922;-60
2023/10/07 08:25:47;;;;;;;;;;;;;;;;;;5100139;28;19912;-60
2023/10/07 08:28:19;;;;;;;;;;;;;;;;;;5094530;28;19919;-60
2023/10/07 08:30:46;;;;;;;;;;;;;;;;;;5089184;28;19912;-59
2023/10/07 08:33:12;;;;;;;;;;;;;;;;;;5113189;28;19912;-56
2023/10/07 08:35:38;;;;;;;;;;;;;;;;;;5114653;28;19912;-56
2023/10/07 08:38:20;;;;;;;;;;;;;;;;;;5114545;28;19912;-62
2023/10/07 08:40:49;;;;;;;;;;;;;;;;;;5084027;28;19916;-59
2023/10/07 08:43:19;;;;;;;;;;;;;;;;;;5094698;28;19937;-62
2023/10/07 08:45:45;;;;;;;;;;;;;;;;;;5094847;28;19984;-62
2023/10/07 08:48:16;;;;;;;;;;;;;;;;;;5093943;28;19916;-63
2023/10/07 08:50:59;;;;;;;;;;;;;;;;;;5099857;28;19916;-62
2023/10/07 08:53:24;;;;;;;;;;;;;;;;;;5087936;28;19918;-62
2023/10/07 08:55:51;;;;;;;;;;;;;;;;;;5110908;28;19912;-60
2023/10/07 08:58:17;;;;;;;;;;;;;;;;;;5088282;28;19923;-63
2023/10/07 09:00:45;;;;;;;;;;;;;;;;;;5095144;28;19948;-63
2023/10/07 09:03:14;;;;;;;;;;;;;;;;;;5101207;28;19973;-62
2023/10/07 09:05:40;;;;;;;;;;;;;;;;;;5113541;28;19997;-63
2023/10/07 09:08:11;;;;;;;;;;;;;;;;;;5114531;28;19992;-61
2023/10/07 09:10:36;;;;;;;;;;;;;;;;;;5110367;28;19923;-60
2023/10/07 09:13:04;;;;;;;;;;;;;;;;;;5117440;28;19912;-59
2023/10/07 09:15:34;;;;;;;;;;;;;;;;;;5117433;28;19979;-59
2023/10/07 09:18:03;;;;;;;;;;;;;;;;;;5117996;28;19912;-58
2023/10/07 09:20:32;;;;;;;;;;;;;;;;;;5102671;28;19912;-59
2023/10/07 09:22:57;;;;;;;;;;;;;;;;;;5106909;28;19916;-60
2023/10/07 09:25:29;;;;;;;;;;;;;;;;;;5101400;28;19920;-60
2023/10/07 09:27:54;;;;;;;;;;;;;;;;;;5097071;28;19984;-59
2023/10/07 09:33:06;;;;;;;;;;;;;;;;;;5096800;28;19943;-58
2023/10/07 09:35:32;;;;;;;;;;;;;;;;;;5100578;28;19916;-60
2023/10/07 09:37:59;;;;;;;;;;;;;;;;;;5104205;28;19920;-59
2023/10/07 09:43:27;;;;;;;;;;;;;;;;;;5101693;28;19922;-60
2023/10/07 09:45:52;;;;;;;;;;;;;;;;;;5103139;28;19913;-60
2023/10/07 09:48:23;;;;;;;;;;;;;;;;;;5097979;28;19913;-60
2023/10/07 09:50:50;;;;;;;;;;;;;;;;;;5098996;28;19912;-61
2023/10/07 09:53:16;;;;;;;;;;;;;;;;;;5080980;28;19920;-60
2023/10/07 09:55:42;;;;;;;;;;;;;;;;;;5097295;28;19916;-61
2023/10/07 09:58:07;;;;;;;;;;;;;;;;;;5079987;28;19919;-61
2023/10/07 10:03:04;;;;;;;;;;;;;;;;;;5078054;28;20012;-60
2023/10/07 10:05:31;;;;;;;;;;;;;;;;;;5096985;28;19956;-61
2023/10/07 10:07:56;;;;;;;;;;;;;;;;;;5102102;28;19912;-60
2023/10/07 10:10:31;;;;;;;;;;;;;;;;;;5103213;28;19919;-60
2023/10/07 10:13:07;;;;;;;;;;;;;;;;;;5112872;28;19912;-61
2023/10/07 10:18:02;;;;;;;;;;;;;;;;;;5095403;28;19987;-61
2023/10/07 10:20:28;;;;;;;;;;;;;;;;;;5093100;28;19913;-61
2023/10/07 10:22:53;;;;;;;;;;;;;;;;;;5130762;28;19916;-60
2023/10/07 10:25:25;;;;;;;;;;;;;;;;;;5113243;28;19913;-61
2023/10/07 10:27:51;;;;;;;;;;;;;;;;;;5105194;28;19916;-60
2023/10/07 10:30:21;;;;;;;;;;;;;;;;;;5111308;28;19920;-61
2023/10/07 10:32:47;;;;;;;;;;;;;;;;;;5111716;28;19919;-60
2023/10/07 10:35:14;;;;;;;;;;;;;;;;;;5103893;28;19972;-60
2023/10/07 10:37:39;;;;;;;;;;;;;;;;;;5106547;28;19912;-61
2023/10/07 10:40:05;;;;;;;;;;;;;;;;;;5112115;28;19965;-60
2023/10/07 10:42:31;;;;;;;;;;;;;;;;;;5103286;28;19913;-60
2023/10/07 10:44:56;;;;;;;;;;;;;;;;;;5082766;28;19943;-61
2023/10/07 10:47:22;;;;;;;;;;;;;;;;;;5107025;28;19919;-61
2023/10/07 10:49:47;;;;;;;;;;;;;;;;;;5093022;28;19912;-60
2023/10/07 10:52:13;;;;;;;;;;;;;;;;;;5096855;28;19913;-60
2023/10/07 10:54:39;;;;;;;;;;;;;;;;;;5098043;28;19912;-60
2023/10/07 10:57:07;;;;;;;;;;;;;;;;;;5089985;28;19917;-59
2023/10/07 10:59:32;;;;;;;;;;;;;;;;;;5095848;28;19944;-61
2023/10/07 11:02:01;;;;;;;;;;;;;;;;;;5097666;28;19919;-59
2023/10/07 11:04:26;;;;;;;;;;;;;;;;;;5100304;28;19917;-60
2023/10/07 11:06:52;;;;;;;;;;;;;;;;;;5102470;28;19912;-60
2023/10/07 11:09:18;;;;;;;;;;;;;;;;;;5097887;28;19913;-59
2023/10/07 11:11:43;;;;;;;;;;;;;;;;;;5093743;28;19912;-60
2023/10/07 11:14:09;;;;;;;;;;;;;;;;;;5098437;28;19919;-61
2023/10/07 11:16:35;;;;;;;;;;;;;;;;;;5095257;28;19912;-58
2023/10/07 11:19:00;;;;;;;;;;;;;;;;;;5096238;28;19998;-60
2023/10/07 11:21:26;;;;;;;;;;;;;;;;;;5086923;28;19913;-59
2023/10/07 11:23:55;;;;;;;;;;;;;;;;;;5111349;28;19920;-60
2023/10/07 11:26:20;;;;;;;;;;;;;;;;;;5114254;28;19912;-60
2023/10/07 11:28:48;;;;;;;;;;;;;;;;;;5113966;28;19912;-61
2023/10/07 11:31:19;;;;;;;;;;;;;;;;;;5103996;28;20003;-60
2023/10/07 11:33:44;;;;;;;;;;;;;;;;;;5098418;28;19932;-60
2023/10/07 11:36:11;;;;;;;;;;;;;;;;;;5113568;28;19943;-60
2023/10/07 11:38:38;;;;;;;;;;;;;;;;;;5105433;28;19912;-60
2023/10/07 11:41:10;;;;;;;;;;;;;;;;;;5104593;28;19916;-59
2023/10/07 11:43:35;;;;;;;;;;;;;;;;;;5097870;28;19916;-60
2023/10/07 11:46:01;;;;;;;;;;;;;;;;;;5094436;28;19917;-60
2023/10/07 11:48:26;;;;;;;;;;;;;;;;;;5104904;28;19912;-60
2023/10/07 11:50:51;;;;;;;;;;;;;;;;;;5094997;28;19930;-60
2023/10/07 11:53:19;;;;;;;;;;;;;;;;;;5097614;28;19919;-60
2023/10/07 11:55:45;;;;;;;;;;;;;;;;;;5106457;28;19956;-60
2023/10/07 11:58:15;;;;;;;;;;;;;;;;;;5106559;28;19913;-61
2023/10/07 12:00:42;;;;;;;;;;;;;;;;;;5094596;28;19920;-61
2023/10/07 12:03:08;;;;;;;;;;;;;;;;;;5100500;28;19916;-60
2023/10/07 12:05:33;;;;;;;;;;;;;;;;;;5113590;28;19934;-60
2023/10/07 12:08:02;;;;;;;;;;;;;;;;;;5113590;28;19915;-60
2023/10/07 12:10:27;;;;;;;;;;;;;;;;;;5112563;28;20318;-61
2023/10/07 12:12:52;;;;;;;;;;;;;;;;;;5094999;28;19919;-59
2023/10/07 12:15:18;;;;;;;;;;;;;;;;;;5095549;28;19912;-62
2023/10/07 12:17:43;;;;;;;;;;;;;;;;;;5096413;28;19912;-61
2023/10/07 12:20:12;;;;;;;;;;;;;;;;;;5095245;28;19912;-61
2023/10/07 12:22:38;;;;;;;;;;;;;;;;;;5108017;28;19948;-60
2023/10/07 12:25:04;;;;;;;;;;;;;;;;;;5107719;28;19938;-60
2023/10/07 12:27:29;;;;;;;;;;;;;;;;;;5100237;28;19975;-60
2023/10/07 12:29:55;;;;;;;;;;;;;;;;;;5103931;28;19920;-60
2023/10/07 12:32:21;;;;;;;;;;;;;;;;;;5084396;28;19954;-58
2023/10/07 12:34:47;;;;;;;;;;;;;;;;;;5081097;28;19955;-60
2023/10/07 12:37:13;;;;;;;;;;;;;;;;;;5082378;28;19912;-60
2023/10/07 12:39:39;;;;;;;;;;;;;;;;;;5100790;28;19932;-59
2023/10/07 12:42:05;;;;;;;;;;;;;;;;;;5102919;28;19971;-59
2023/10/07 12:44:30;;;;;;;;;;;;;;;;;;5107445;28;19924;-60
2023/10/07 12:46:56;;;;;;;;;;;;;;;;;;5086383;28;19952;-60
2023/10/07 12:49:22;;;;;;;;;;;;;;;;;;5098991;28;19917;-60
2023/10/07 12:51:48;;;;;;;;;;;;;;;;;;5090390;28;19999;-59
2023/10/07 12:54:13;;;;;;;;;;;;;;;;;;5102223;28;19912;-60
2023/10/07 12:56:38;;;;;;;;;;;;;;;;;;5091062;28;19955;-59
2023/10/07 12:59:07;;;;;;;;;;;;;;;;;;5102658;28;19920;-60
2023/10/07 13:01:32;;;;;;;;;;;;;;;;;;5092751;28;19919;-60
2023/10/07 13:03:58;;;;;;;;;;;;;;;;;;5093337;28;20072;-60
2023/10/07 13:06:23;;;;;;;;;;;;;;;;;;5097885;28;19928;-60
2023/10/07 13:08:49;;;;;;;;;;;;;;;;;;5099394;28;19913;-60
2023/10/07 13:11:14;;;;;;;;;;;;;;;;;;5086472;28;19936;-61
2023/10/07 13:13:40;;;;;;;;;;;;;;;;;;5094494;28;19913;-60
2023/10/07 13:16:08;;;;;;;;;;;;;;;;;;5091554;28;20034;-60
2023/10/07 13:18:35;;;;;;;;;;;;;;;;;;5092457;28;19952;-59
2023/10/07 13:21:02;;;;;;;;;;;;;;;;;;5095448;28;20075;-60
2023/10/07 13:23:28;;;;;;;;;;;;;;;;;;5098826;28;19920;-59
2023/10/07 13:25:53;;;;;;;;;;;;;;;;;;5096141;28;19974;-59
2023/10/07 13:28:18;;;;;;;;;;;;;;;;;;5083781;28;19912;-59
2023/10/07 13:30:44;;;;;;;;;;;;;;;;;;5098001;28;19912;-60
2023/10/07 13:33:09;;;;;;;;;;;;;;;;;;5089889;28;19980;-62
2023/10/07 13:35:34;;;;;;;;;;;;;;;;;;5088499;28;19936;-59
2023/10/07 13:38:01;;;;;;;;;;;;;;;;;;5081062;28;19917;-60
2023/10/07 13:40:29;;;;;;;;;;;;;;;;;;5095264;28;19924;-59
2023/10/07 13:42:55;;;;;;;;;;;;;;;;;;5095682;28;19912;-58
2023/10/07 13:45:24;;;;;;;;;;;;;;;;;;5101680;28;19921;-61
2023/10/07 13:47:49;;;;;;;;;;;;;;;;;;5080371;28;19944;-59
2023/10/07 13:50:14;;;;;;;;;;;;;;;;;;5091485;28;19979;-61
2023/10/07 13:52:50;;;;;;;;;;;;;;;;;;5095243;28;19913;-61
2023/10/07 13:55:54;;;;;;;;;;;;;;;;;;5095992;28;19913;-60
2023/10/07 13:58:19;;;;;;;;;;;;;;;;;;5097869;28;19919;-60
2023/10/07 14:00:54;;;;;;;;;;;;;;;;;;5094848;28;19912;-61
2023/10/07 14:03:19;;;;;;;;;;;;;;;;;;5098075;28;19926;-60
2023/10/07 14:05:48;;;;;;;;;;;;;;;;;;5086115;28;19944;-61
2023/10/07 14:08:15;;;;;;;;;;;;;;;;;;5084062;28;19924;-60
2023/10/07 14:10:41;;;;;;;;;;;;;;;;;;5092317;28;19912;-62
2023/10/07 14:13:11;;;;;;;;;;;;;;;;;;5101320;28;19919;-60
2023/10/07 14:15:37;;;;;;;;;;;;;;;;;;5093925;28;20026;-60
2023/10/07 14:18:02;;;;;;;;;;;;;;;;;;5097632;28;19913;-57
2023/10/07 14:20:29;;;;;;;;;;;;;;;;;;5097132;28;19971;-61
2023/10/07 14:22:54;;;;;;;;;;;;;;;;;;5103448;28;19913;-59
2023/10/07 14:25:20;;;;;;;;;;;;;;;;;;5095667;28;20054;-60
2023/10/07 14:27:46;;;;;;;;;;;;;;;;;;5088552;28;19912;-60
2023/10/07 14:30:14;;;;;;;;;;;;;;;;;;5080726;28;19922;-60
2023/10/07 14:32:39;;;;;;;;;;;;;;;;;;5095156;28;19917;-61
2023/10/07 14:35:09;;;;;;;;;;;;;;;;;;5067119;28;19923;-60
2023/10/07 14:37:34;;;;;;;;;;;;;;;;;;5088615;28;19901;-60
2023/10/07 14:39:59;;;;;;;;;;;;;;;;;;5093887;28;19987;-60
2023/10/07 14:42:25;;;;;;;;;;;;;;;;;;5094765;28;19913;-58
2023/10/07 14:44:51;;;;;;;;;;;;;;;;;;5105880;28;19979;-60
2023/10/07 14:47:16;;;;;;;;;;;;;;;;;;5094005;28;19919;-59
2023/10/07 14:49:43;;;;;;;;;;;;;;;;;;5097582;28;19912;-60
2023/10/07 14:52:09;;;;;;;;;;;;;;;;;;5098734;28;19920;-59
2023/10/07 14:54:34;;;;;;;;;;;;;;;;;;5106475;28;19916;-60
2023/10/07 14:57:03;;;;;;;;;;;;;;;;;;5092029;28;19972;-59
2023/10/07 14:59:29;;;;;;;;;;;;;;;;;;5094364;28;19908;-60
2023/10/07 15:01:54;;;;;;;;;;;;;;;;;;5085013;28;19939;-60
2023/10/07 15:04:20;;;;;;;;;;;;;;;;;;5090858;28;19980;-59
2023/10/07 15:06:48;;;;;;;;;;;;;;;;;;5089053;28;19913;-60
2023/10/07 15:09:21;;;;;;;;;;;;;;;;;;5097468;28;19919;-59
2023/10/07 15:11:46;;;;;;;;;;;;;;;;;;5083152;28;19912;-61
2023/10/07 15:14:11;;;;;;;;;;;;;;;;;;5085783;28;19943;-59
2023/10/07 15:16:37;;;;;;;;;;;;;;;;;;5085593;28;19919;-60
2023/10/07 15:19:05;;;;;;;;;;;;;;;;;;5092004;28;19944;-61
2023/10/07 15:21:30;;;;;;;;;;;;;;;;;;5089661;28;19915;-59
2023/10/07 15:23:56;;;;;;;;;;;;;;;;;;5094789;28;19951;-60
2023/10/07 15:26:23;;;;;;;;;;;;;;;;;;5095008;28;19920;-60
2023/10/07 15:28:48;;;;;;;;;;;;;;;;;;5088628;28;19912;-60
2023/10/07 15:31:13;;;;;;;;;;;;;;;;;;5100190;28;19922;-60
2023/10/07 15:33:39;;;;;;;;;;;;;;;;;;5090777;28;19980;-61
2023/10/07 15:36:06;;;;;;;;;;;;;;;;;;5088068;28;19912;-60
2023/10/07 15:38:31;;;;;;;;;;;;;;;;;;5084545;28;19913;-60
2023/10/07 15:40:58;;;;;;;;;;;;;;;;;;5091551;28;19939;-60
2023/10/07 15:43:23;;;;;;;;;;;;;;;;;;5085159;28;19956;-61
2023/10/07 15:45:51;;;;;;;;;;;;;;;;;;5098002;28;19913;-60
2023/10/07 15:48:17;;;;;;;;;;;;;;;;;;5085341;28;19912;-59
2023/10/07 15:50:42;;;;;;;;;;;;;;;;;;5098132;28;19971;-59
2023/10/07 15:53:08;;;;;;;;;;;;;;;;;;5088550;28;19912;-60
2023/10/07 15:55:33;;;;;;;;;;;;;;;;;;5093002;28;19916;-58
2023/10/07 15:57:58;;;;;;;;;;;;;;;;;;5087374;28;19912;-60
2023/10/07 16:00:24;;;;;;;;;;;;;;;;;;5092965;28;19969;-60
2023/10/07 16:02:49;;;;;;;;;;;;;;;;;;5091137;28;19919;-58
2023/10/07 16:05:14;;;;;;;;;;;;;;;;;;5098903;28;19919;-61
2023/10/07 16:07:39;;;;;;;;;;;;;;;;;;5098500;28;19921;-60
2023/10/07 16:10:12;;;;;;;;;;;;;;;;;;5100349;28;19934;-60
2023/10/07 16:12:38;;;;;;;;;;;;;;;;;;5097284;28;19923;-57
2023/10/07 16:15:05;;;;;;;;;;;;;;;;;;5096470;28;19912;-60
2023/10/07 16:17:31;;;;;;;;;;;;;;;;;;5097479;28;19908;-59
2023/10/07 16:19:57;;;;;;;;;;;;;;;;;;5114123;28;19951;-59
2023/10/07 16:22:23;;;;;;;;;;;;;;;;;;5116103;28;19912;-59
2023/10/07 16:24:48;;;;;;;;;;;;;;;;;;5106493;28;19923;-60
2023/10/07 16:27:14;;;;;;;;;;;;;;;;;;5088350;28;19944;-59
2023/10/07 16:29:40;;;;;;;;;;;;;;;;;;5110607;28;19912;-58
2023/10/07 16:32:05;;;;;;;;;;;;;;;;;;5117082;28;19913;-59
2023/10/07 16:34:31;;;;;;;;;;;;;;;;;;5108012;28;20022;-55
2023/10/07 16:36:56;;;;;;;;;;;;;;;;;;5089520;28;19990;-58
2023/10/07 16:39:22;;;;;;;;;;;;;;;;;;5095784;28;19916;-59
2023/10/07 16:41:47;;;;;;;;;;;;;;;;;;5091365;28;19916;-60
2023/10/07 16:44:14;;;;;;;;;;;;;;;;;;5094877;28;19917;-60
2023/10/07 16:46:42;;;;;;;;;;;;;;;;;;5108383;28;19912;-59
2023/10/07 16:49:11;;;;;;;;;;;;;;;;;;5082876;28;19913;-58
2023/10/07 16:51:44;;;;;;;;;;;;;;;;;;5098944;28;19912;-60
2023/10/07 16:54:10;;;;;;;;;;;;;;;;;;5093634;28;19920;-58
2023/10/07 16:56:36;;;;;;;;;;;;;;;;;;5107713;28;19916;-59
2023/10/07 16:59:03;;;;;;;;;;;;;;;;;;5079073;28;19939;-61
2023/10/07 17:01:28;;;;;;;;;;;;;;;;;;5084112;28;19916;-58
2023/10/07 17:03:54;;;;;;;;;;;;;;;;;;5081555;28;19951;-61
2023/10/07 17:06:20;;;;;;;;;;;;;;;;;;5104442;28;19958;-60
2023/10/07 17:08:46;;;;;;;;;;;;;;;;;;5109460;28;19912;-60
2023/10/07 17:11:12;;;;;;;;;;;;;;;;;;5107639;28;19957;-59
2023/10/07 17:13:40;;;;;;;;;;;;;;;;;;5095967;28;19917;-60
2023/10/07 17:16:05;;;;;;;;;;;;;;;;;;5098486;28;19912;-56
2023/10/07 17:18:30;;;;;;;;;;;;;;;;;;5096344;28;19923;-58
2023/10/07 17:20:59;;;;;;;;;;;;;;;;;;5078842;28;19936;-59
2023/10/07 17:23:25;;;;;;;;;;;;;;;;;;5100511;28;19927;-60